Mayer, Minnesota
Current Conditions -  °F | °C
As of 3:13 AM on Thursday 23 Oct 2014 (Local Time) from KGYL Reporting Station
Overcast Overcast  
Wind Chill: 12°   Ceiling: 700
Heat Index: 12°   Visibility: 7mi
Dew Point: 12°   Wind: 8mph
Humidity: 98%   Direction: 190°S
Pressure: 29.98"   Gusts: NA
Location:  44.88°N, 93.89°W
Report Text: KGYL 230813Z AUTO 19007KT 7SM OVC007 12/12 A2998 RMK AO2 T01230120
Loading
Personal Weather Stations






























Interactive Weather Map
Tropical Storm Tracking
New forecast layout! Learn more

10-Day Weather Forecast

Advertisements
Track Severe Weather on mobile